Capitol Logistics 2295


KSDF
Louisville International Airport-Standiford Field
Louisville, Kentucky, US
KMIA
Miami International Airport
Miami, Florida, US

Activity Log

Date Flight Route Aircraft Duration
08/29/2020 CPX2295 FEDRA5 OHAGI ATL HONID BULZI NICKI Q81 ENDEW JUULI SSCOT5 B744 2h 12m

Route Details

Aircraft Information
Primary: Boeing 747-400BCF
Backup: Boeing 767-300BDSF
Date Restrictions
Between:Nov 16, 2019
Dec 31, 2019
Route Data
Distance: 794nm
Sched. Duration: 2h 00m
Avg. Duration: 2h 12m (+11m)
Times Flown: 1
Recm'd Route: FEDRA5 OHAGI ATL HONID BULZI NICKI Q81 ENDEW JUULI SSCOT5
Planned Altitude: 33,000ft
Origin Wx: KSDF 292024Z 35016G22KT 2 1/2SM -RA BR BKN006 OVC012 11/09 A2964 RMK AO2 CIG 005V009 P0000 T01060094
Dest. Wx: KMIA 291953Z 15010G19KT 110V180 10SM SCT028 31/24 A2989 RMK AO2 SLP120 T03060244
Notes: SEASONAL FLIGHT | UPS SURGE OPS CONTRACT

Financial History
Total Freight: 190,200lbs
Average Load: 190,200lbs/flt
Fuel Used: 52,800lbs
Avg. Fuel Used: 52,800lbs/flt
Fuel Expense: $42,768
Avg. Fuel Expense: $42,768
Avg. Fuel Cost: $0.81/lbs
Total Gross Income: $359,478
Pilot Pay: $229
Total Expenses: $38,876
Total Revenue: $277,349
Average Revenue: $359,478.00